Terminal Aerodrome Forecast
Issued by NWS Sioux Falls, SD

Home | Current Version | Previous Version | Graphics & Text | Print | Product List | Glossary On
Versions: 1 2 3 4 5 6 7 8 9 10 11 12 13 14 15
000
FTUS43 KFSD 161725
TAFFSD
TAF
KFSD 161725Z 1618/1718 35006KT P6SM BKN140
     FM170000 02007KT P6SM BKN035
     FM170200 02007KT P6SM SCT010 BKN035
     FM171200 03005KT P6SM SCT010 BKN030
     FM171700 36005KT P6SM BKN060=

USA.gov is the U.S. government's official web portal to all federal, state and local government web resources and services.